createdAt,value
2017-04-30T00:00:29.004Z,82.00
2017-04-30T00:02:55.856Z,84.30
2017-04-30T00:05:22.627Z,84.60
2017-04-30T00:07:49.411Z,84.50
2017-04-30T00:10:16.228Z,84.20
2017-04-30T00:12:43.021Z,84.30
2017-04-30T00:15:10.586Z,83.70
2017-04-30T00:17:37.375Z,83.30
2017-04-30T00:20:04.183Z,82.90
2017-04-30T00:22:30.958Z,83.30
2017-04-30T00:24:58.528Z,82.60
2017-04-30T00:27:25.341Z,84.20
2017-04-30T00:29:52.123Z,82.90
2017-04-30T00:32:18.926Z,83.70
2017-04-30T00:34:46.051Z,83.30
2017-04-30T00:37:12.912Z,82.80
2017-04-30T00:39:39.695Z,82.20
2017-04-30T00:42:06.558Z,82.70
2017-04-30T00:44:33.338Z,82.30
2017-04-30T00:47:00.908Z,83.70
2017-04-30T00:49:27.712Z,83.00
2017-04-30T00:51:55.358Z,82.30
2017-04-30T00:54:22.978Z,82.60
2017-04-30T00:56:49.819Z,81.70
2017-04-30T00:59:17.411Z,83.20
2017-04-30T01:01:44.188Z,83.50
2017-04-30T01:04:10.983Z,83.10
2017-04-30T01:06:37.802Z,82.20
2017-04-30T01:09:04.575Z,82.10
2017-04-30T01:11:32.095Z,81.60
2017-04-30T01:13:58.973Z,81.70
2017-04-30T01:16:25.843Z,81.40
2017-04-30T01:18:52.618Z,81.50
2017-04-30T01:21:20.143Z,83.10
2017-04-30T01:23:47.193Z,83.80
2017-04-30T01:26:14.723Z,83.00
2017-04-30T01:28:42.301Z,83.10
2017-04-30T01:31:09.075Z,82.70
2017-04-30T01:33:35.911Z,82.20
2017-04-30T01:36:02.731Z,82.10
2017-04-30T01:38:29.535Z,82.10
2017-04-30T01:40:56.455Z,81.80
2017-04-30T01:43:23.227Z,81.80
2017-04-30T01:45:50.002Z,82.00
2017-04-30T01:48:16.834Z,82.70
2017-04-30T01:50:43.610Z,82.60
2017-04-30T01:53:10.422Z,82.70
2017-04-30T01:55:37.254Z,84.20
2017-04-30T01:58:04.078Z,83.50
2017-04-30T02:00:30.895Z,83.80
2017-04-30T02:02:57.673Z,83.80
2017-04-30T02:05:24.526Z,84.60
2017-04-30T02:07:51.320Z,83.20
2017-04-30T02:10:18.882Z,82.90
2017-04-30T02:12:45.662Z,82.70
2017-04-30T02:15:12.487Z,83.80
2017-04-30T02:17:39.306Z,84.30
2017-04-30T02:20:06.086Z,83.30
2017-04-30T02:22:32.903Z,83.00
2017-04-30T02:25:00.439Z,82.90
2017-04-30T02:27:27.274Z,84.50
2017-04-30T02:29:54.816Z,83.10
2017-04-30T02:32:22.371Z,82.90
2017-04-30T02:34:49.931Z,84.80
2017-04-30T02:37:16.709Z,83.10
2017-04-30T02:39:43.541Z,83.50
2017-04-30T02:42:10.326Z,84.30
2017-04-30T02:44:37.153Z,84.80
2017-04-30T02:47:03.934Z,85.00
2017-04-30T02:49:30.710Z,84.20
2017-04-30T02:51:57.630Z,83.90
2017-04-30T02:54:24.452Z,85.90
2017-04-30T02:56:52.002Z,85.50
2017-04-30T02:59:18.780Z,84.80
2017-04-30T03:01:45.626Z,84.60
2017-04-30T03:04:13.156Z,85.30
2017-04-30T03:06:39.972Z,84.60
2017-04-30T03:09:06.811Z,84.90
2017-04-30T03:11:33.612Z,84.60
2017-04-30T03:14:00.395Z,84.60
2017-04-30T03:16:27.974Z,86.30
2017-04-30T03:18:54.828Z,87.40
2017-04-30T03:21:21.631Z,86.00
2017-04-30T03:23:48.470Z,87.00
2017-04-30T03:26:15.270Z,87.30
2017-04-30T03:28:42.110Z,86.90
2017-04-30T03:31:08.893Z,87.40
2017-04-30T03:33:36.446Z,88.70
2017-04-30T03:36:04.024Z,88.10
2017-04-30T03:38:43.191Z,87.10
2017-04-30T03:41:22.431Z,86.30
2017-04-30T03:44:02.243Z,86.90
2017-04-30T03:46:41.525Z,87.30
2017-04-30T03:49:20.647Z,86.40
2017-04-30T03:51:59.779Z,86.00
2017-04-30T03:54:38.959Z,85.80
2017-04-30T03:57:18.038Z,86.20
2017-04-30T03:59:57.872Z,85.70
2017-04-30T04:02:37.103Z,87.70
2017-04-30T04:05:16.267Z,88.30
2017-04-30T04:07:55.483Z,86.80
2017-04-30T04:10:34.593Z,87.20
2017-04-30T04:13:13.822Z,87.00
2017-04-30T04:15:53.066Z,86.60
2017-04-30T04:18:32.900Z,87.10
2017-04-30T04:21:12.870Z,87.30
2017-04-30T04:23:52.022Z,87.20
2017-04-30T04:26:31.482Z,87.10
2017-04-30T04:29:11.391Z,87.30
2017-04-30T04:31:50.606Z,87.30
2017-04-30T04:34:29.662Z,87.30
2017-04-30T04:37:09.039Z,87.80
2017-04-30T04:39:48.258Z,87.70
2017-04-30T04:42:27.400Z,88.40
2017-04-30T04:45:07.436Z,87.90
2017-04-30T04:47:47.331Z,88.40
2017-04-30T04:50:26.517Z,88.40
2017-04-30T04:53:05.766Z,88.50
2017-04-30T04:55:44.999Z,88.70
2017-04-30T04:58:24.197Z,88.70
2017-04-30T05:01:03.438Z,88.80
2017-04-30T05:03:42.541Z,88.80
2017-04-30T05:06:21.691Z,89.70
2017-04-30T05:09:01.666Z,91.70
2017-04-30T05:11:40.899Z,90.70
2017-04-30T05:14:20.174Z,90.30
2017-04-30T05:16:59.299Z,90.20
2017-04-30T05:19:38.511Z,90.20
2017-04-30T05:22:17.726Z,89.80
2017-04-30T05:24:56.996Z,89.90
2017-04-30T05:27:36.056Z,90.30
2017-04-30T05:30:15.274Z,89.40
2017-04-30T05:32:54.368Z,89.90
2017-04-30T05:35:34.334Z,90.10
2017-04-30T05:38:13.691Z,89.10
2017-04-30T05:40:52.890Z,89.90
2017-04-30T05:43:32.167Z,89.70
2017-04-30T05:46:12.186Z,89.50
2017-04-30T05:48:51.552Z,89.30
2017-04-30T05:51:30.791Z,88.80
2017-04-30T05:54:10.019Z,88.60
2017-04-30T05:56:49.242Z,89.00
2017-04-30T05:59:28.560Z,88.30
2017-04-30T06:02:07.708Z,88.40
2017-04-30T06:04:46.890Z,87.00
2017-04-30T06:07:25.995Z,86.70
2017-04-30T06:10:05.367Z,85.70
2017-04-30T06:12:44.539Z,85.20
2017-04-30T06:15:23.855Z,85.80
2017-04-30T06:18:03.071Z,85.70
2017-04-30T06:20:42.427Z,85.90
2017-04-30T06:23:22.479Z,85.00
2017-04-30T06:26:01.486Z,85.30
2017-04-30T06:28:41.419Z,85.30
2017-04-30T06:31:21.314Z,85.00
2017-04-30T06:34:00.568Z,83.70
2017-04-30T06:36:40.466Z,83.90
2017-04-30T06:39:19.873Z,83.60
2017-04-30T06:41:59.141Z,83.70
2017-04-30T06:44:38.479Z,83.50
2017-04-30T06:47:17.630Z,82.40
2017-04-30T06:49:56.948Z,82.00
2017-04-30T06:52:36.165Z,82.10
2017-04-30T06:55:15.325Z,81.60
2017-04-30T06:57:55.288Z,81.60
2017-04-30T07:00:34.402Z,82.20
2017-04-30T07:03:13.678Z,81.20
2017-04-30T07:05:52.838Z,81.70
2017-04-30T07:08:31.991Z,81.60
2017-04-30T07:11:11.125Z,80.70
2017-04-30T07:13:50.527Z,79.80
2017-04-30T07:16:29.852Z,80.40
2017-04-30T07:19:09.234Z,78.30
2017-04-30T07:21:48.355Z,77.80
2017-04-30T07:24:27.647Z,77.00
2017-04-30T07:27:06.785Z,72.50
2017-04-30T07:29:46.034Z,76.10
2017-04-30T07:32:25.161Z,73.20
2017-04-30T07:35:04.342Z,72.20
2017-04-30T07:37:43.387Z,70.70
2017-04-30T07:40:22.735Z,69.30
2017-04-30T07:42:50.259Z,68.50
2017-04-30T07:45:17.031Z,65.30
2017-04-30T07:47:43.863Z,67.00
2017-04-30T07:50:10.646Z,65.80
2017-04-30T07:52:37.463Z,65.50
2017-04-30T07:55:04.284Z,64.00
2017-04-30T07:57:31.078Z,61.70
2017-04-30T07:59:57.899Z,58.20
2017-04-30T08:02:24.750Z,56.40
2017-04-30T08:04:51.519Z,57.30
2017-04-30T08:07:18.291Z,54.80
2017-04-30T08:09:45.095Z,54.90
2017-04-30T08:12:12.696Z,54.50
2017-04-30T08:14:39.467Z,53.60
2017-04-30T08:17:06.978Z,54.60
2017-04-30T08:19:33.784Z,54.00
2017-04-30T08:22:00.586Z,48.70
2017-04-30T08:24:27.426Z,50.50
2017-04-30T08:26:54.266Z,50.20
2017-04-30T08:29:21.059Z,49.00
2017-04-30T08:31:54.870Z,48.60
2017-04-30T08:34:21.646Z,47.40
2017-04-30T08:36:48.413Z,47.50
2017-04-30T08:39:15.250Z,46.60
2017-04-30T08:41:42.022Z,46.60
2017-04-30T08:44:08.802Z,44.90
2017-04-30T08:46:35.614Z,45.40
2017-04-30T08:49:02.382Z,44.20
2017-04-30T08:51:29.234Z,44.50
2017-04-30T08:53:56.176Z,44.20
2017-04-30T08:56:23.695Z,42.70
2017-04-30T08:58:50.537Z,43.30
2017-04-30T09:01:17.363Z,42.70
2017-04-30T09:03:44.136Z,42.10
2017-04-30T09:06:10.982Z,42.80
2017-04-30T09:08:37.762Z,43.10
2017-04-30T09:11:05.298Z,43.50
2017-04-30T09:13:32.869Z,42.70
2017-04-30T09:15:59.666Z,42.00
2017-04-30T09:18:26.523Z,42.50
2017-04-30T09:20:53.314Z,41.90
2017-04-30T09:23:20.131Z,42.50
2017-04-30T09:25:46.914Z,39.30
2017-04-30T09:28:13.735Z,40.10
2017-04-30T09:30:40.517Z,43.90
2017-04-30T09:33:07.302Z,42.90
2017-04-30T09:35:34.114Z,41.90
2017-04-30T09:38:00.918Z,42.00
2017-04-30T09:40:27.774Z,42.20
2017-04-30T09:42:54.623Z,42.70
2017-04-30T09:45:21.394Z,41.00
2017-04-30T09:47:48.215Z,41.40
2017-04-30T09:50:14.994Z,41.20
2017-04-30T09:52:41.847Z,41.10
2017-04-30T09:55:08.647Z,42.50
2017-04-30T09:57:35.466Z,40.80
2017-04-30T10:00:02.240Z,41.20
2017-04-30T10:02:29.053Z,38.80
2017-04-30T10:04:55.907Z,40.40
2017-04-30T10:07:22.674Z,40.60
2017-04-30T10:09:50.190Z,40.60
2017-04-30T10:12:16.992Z,38.10
2017-04-30T10:14:43.774Z,37.10
2017-04-30T10:17:11.318Z,36.50
2017-04-30T10:19:38.831Z,36.50
2017-04-30T10:22:05.643Z,37.50
2017-04-30T10:24:32.436Z,37.10
2017-04-30T10:26:59.277Z,36.40
2017-04-30T10:29:26.139Z,37.50
2017-04-30T10:31:52.918Z,36.60
2017-04-30T10:34:19.695Z,35.30
2017-04-30T10:36:46.510Z,37.00
2017-04-30T10:39:13.343Z,34.60
2017-04-30T10:41:40.151Z,33.50
2017-04-30T10:44:06.920Z,34.90
2017-04-30T10:46:34.470Z,34.90
2017-04-30T10:49:01.627Z,34.60
2017-04-30T10:51:28.486Z,34.00
2017-04-30T10:53:55.323Z,35.10
2017-04-30T10:56:22.134Z,33.30
2017-04-30T10:58:48.959Z,34.30
2017-04-30T11:01:15.734Z,34.80
2017-04-30T11:03:42.506Z,32.20
2017-04-30T11:06:09.363Z,36.00
2017-04-30T11:08:36.134Z,35.50
2017-04-30T11:11:03.651Z,33.50
2017-04-30T11:13:30.490Z,34.50
2017-04-30T11:15:57.330Z,33.80
2017-04-30T11:18:24.922Z,35.00
2017-04-30T11:20:51.698Z,34.00
2017-04-30T11:23:18.515Z,34.50
2017-04-30T11:25:45.322Z,34.80
2017-04-30T11:28:12.148Z,34.10
2017-04-30T11:30:38.923Z,34.00
2017-04-30T11:33:06.447Z,33.10
2017-04-30T11:35:33.259Z,34.90
2017-04-30T11:38:00.082Z,33.40
2017-04-30T11:40:26.881Z,34.20
2017-04-30T11:42:53.650Z,33.30
2017-04-30T11:45:20.474Z,34.60
2017-04-30T11:47:47.263Z,32.90
2017-04-30T11:50:14.034Z,31.30
2017-04-30T11:52:40.884Z,32.90
2017-04-30T11:55:08.447Z,32.90
2017-04-30T11:57:35.213Z,33.60
2017-04-30T12:00:01.986Z,33.80
2017-04-30T12:02:29.627Z,33.50
2017-04-30T12:04:57.147Z,32.60
2017-04-30T12:07:23.973Z,32.80
2017-04-30T12:09:50.762Z,33.50
2017-04-30T12:12:17.570Z,32.40
2017-04-30T12:14:44.383Z,31.00
2017-04-30T12:17:11.935Z,30.90
2017-04-30T12:19:39.463Z,30.60
2017-04-30T12:22:06.280Z,29.80
2017-04-30T12:24:33.046Z,31.50
2017-04-30T12:26:59.854Z,29.90
2017-04-30T12:29:27.490Z,29.20
2017-04-30T12:31:54.271Z,29.50
2017-04-30T12:34:21.094Z,29.40
2017-04-30T12:36:47.874Z,29.30
2017-04-30T12:39:14.982Z,28.50
2017-04-30T12:41:41.790Z,27.60
2017-04-30T12:44:08.583Z,27.50
2017-04-30T12:46:36.095Z,22.80
2017-04-30T12:49:02.910Z,22.60
2017-04-30T12:51:29.735Z,22.30
2017-04-30T12:53:56.611Z,22.10
2017-04-30T12:56:23.395Z,24.00
2017-04-30T12:58:50.162Z,24.10
2017-04-30T13:01:17.714Z,25.80
2017-04-30T13:03:44.535Z,26.40
2017-04-30T13:06:12.052Z,26.50
2017-04-30T13:08:38.851Z,26.30
2017-04-30T13:11:05.663Z,27.10
2017-04-30T13:13:32.458Z,26.70
2017-04-30T13:16:00.059Z,25.10
2017-04-30T13:18:26.879Z,23.10
2017-04-30T13:20:53.663Z,21.20
2017-04-30T13:23:21.231Z,23.50
2017-04-30T13:25:48.018Z,22.80
2017-04-30T13:28:14.794Z,23.00
2017-04-30T13:30:41.606Z,23.80
2017-04-30T13:33:08.378Z,24.60
2017-04-30T13:35:35.154Z,23.30
2017-04-30T13:38:01.970Z,22.80
2017-04-30T13:40:28.770Z,22.40
2017-04-30T13:42:55.640Z,21.60
2017-04-30T13:45:22.415Z,22.30
2017-04-30T13:47:49.191Z,21.20
2017-04-30T13:50:15.998Z,21.00
2017-04-30T13:52:43.547Z,20.70
2017-04-30T13:55:11.135Z,20.70
2017-04-30T13:57:37.980Z,22.00
2017-04-30T14:00:04.755Z,20.90
2017-04-30T14:02:31.534Z,20.60
2017-04-30T14:04:58.359Z,20.80
2017-04-30T14:07:25.223Z,20.20
2017-04-30T14:09:52.027Z,19.50
2017-04-30T14:12:18.798Z,19.80
2017-04-30T14:14:46.363Z,20.40
2017-04-30T14:17:13.150Z,20.30
2017-04-30T14:19:40.729Z,21.70
2017-04-30T14:22:07.558Z,22.20
2017-04-30T14:24:34.346Z,23.90
2017-04-30T14:27:01.141Z,23.60
2017-04-30T14:29:27.975Z,23.70
2017-04-30T14:31:54.778Z,23.50
2017-04-30T14:34:21.607Z,24.20
2017-04-30T14:36:48.386Z,23.30
2017-04-30T14:39:15.171Z,24.50
2017-04-30T14:41:41.996Z,25.10
2017-04-30T14:44:08.791Z,25.40
2017-04-30T14:46:36.354Z,25.40
2017-04-30T14:49:03.148Z,25.80
2017-04-30T14:51:30.704Z,27.00
2017-04-30T14:53:58.309Z,25.90
2017-04-30T14:56:25.119Z,24.90
2017-04-30T14:58:51.982Z,25.70
2017-04-30T15:01:18.832Z,26.10
2017-04-30T15:03:45.627Z,26.60
2017-04-30T15:06:12.438Z,26.80
2017-04-30T15:08:39.270Z,27.10
2017-04-30T15:11:06.040Z,27.40
2017-04-30T15:13:33.575Z,28.00
2017-04-30T15:16:00.426Z,28.30
2017-04-30T15:18:27.251Z,28.00
2017-04-30T15:20:54.852Z,28.20
2017-04-30T15:23:21.678Z,29.00
2017-04-30T15:25:48.454Z,29.80
2017-04-30T15:28:15.967Z,30.50
2017-04-30T15:30:42.783Z,31.30
2017-04-30T15:33:09.633Z,30.90
2017-04-30T15:35:37.188Z,30.20
2017-04-30T15:38:04.706Z,31.10
2017-04-30T15:40:31.550Z,31.00
2017-04-30T15:42:58.419Z,31.30
2017-04-30T15:45:25.218Z,32.30
2017-04-30T15:47:52.738Z,31.90
2017-04-30T15:50:19.581Z,32.10
2017-04-30T15:52:46.355Z,32.10
2017-04-30T15:55:13.215Z,32.70
2017-04-30T15:57:39.995Z,32.70
2017-04-30T16:00:06.814Z,33.80
2017-04-30T16:02:34.368Z,33.50
2017-04-30T16:05:01.266Z,33.40
2017-04-30T16:07:28.866Z,33.00
2017-04-30T16:09:55.687Z,33.10
2017-04-30T16:12:22.466Z,33.10
2017-04-30T16:14:49.285Z,33.70
2017-04-30T16:17:16.050Z,33.40
2017-04-30T16:19:42.827Z,33.30
2017-04-30T16:22:09.638Z,34.80
2017-04-30T16:24:36.406Z,34.90
2017-04-30T16:27:03.223Z,34.90
2017-04-30T16:29:30.015Z,35.10
2017-04-30T16:31:56.840Z,35.70
2017-04-30T16:34:23.611Z,36.00
2017-04-30T16:36:50.419Z,36.10
2017-04-30T16:39:17.190Z,35.60
2017-04-30T16:41:44.744Z,36.20
2017-04-30T16:44:11.519Z,36.50
2017-04-30T16:46:38.333Z,37.00
2017-04-30T16:49:05.108Z,37.40
2017-04-30T16:51:32.659Z,37.10
2017-04-30T16:54:00.218Z,37.20
2017-04-30T16:56:27.067Z,37.10
2017-04-30T16:58:53.843Z,38.20
2017-04-30T17:01:20.662Z,37.80
2017-04-30T17:03:47.470Z,38.50
2017-04-30T17:06:14.255Z,38.80
2017-04-30T17:08:41.155Z,38.20
2017-04-30T17:11:08.666Z,38.50
2017-04-30T17:13:35.452Z,38.90
2017-04-30T17:16:02.298Z,38.90
2017-04-30T17:18:29.091Z,39.50
2017-04-30T17:20:56.647Z,39.50
2017-04-30T17:23:23.464Z,39.80
2017-04-30T17:25:50.980Z,40.20
2017-04-30T17:28:17.824Z,40.40
2017-04-30T17:30:44.602Z,40.20
2017-04-30T17:33:11.432Z,40.80
2017-04-30T17:35:38.246Z,40.30
2017-04-30T17:38:05.026Z,40.60
2017-04-30T17:40:31.882Z,40.70
2017-04-30T17:42:58.726Z,41.40
2017-04-30T17:45:25.582Z,41.90
2017-04-30T17:47:52.363Z,42.40
2017-04-30T17:50:19.903Z,42.50
2017-04-30T17:52:47.463Z,43.10
2017-04-30T17:55:14.311Z,43.70
2017-04-30T17:57:41.203Z,43.40
2017-04-30T18:00:08.722Z,43.80
2017-04-30T18:02:35.498Z,43.90
2017-04-30T18:05:02.317Z,43.90
2017-04-30T18:07:29.867Z,44.30
2017-04-30T18:09:56.747Z,44.60
2017-04-30T18:12:23.534Z,45.00
2017-04-30T18:14:50.351Z,45.40
2017-04-30T18:17:17.123Z,46.00
2017-04-30T18:19:43.890Z,46.00
2017-04-30T18:22:11.446Z,46.50
2017-04-30T18:24:38.230Z,47.00
2017-04-30T18:27:05.100Z,46.80
2017-04-30T18:29:32.618Z,47.30
2017-04-30T18:31:59.420Z,47.30
2017-04-30T18:34:26.313Z,47.50
2017-04-30T18:36:53.090Z,47.30
2017-04-30T18:39:19.899Z,47.40
2017-04-30T18:41:46.687Z,47.80
2017-04-30T18:44:14.246Z,48.00
2017-04-30T18:46:41.060Z,48.00
2017-04-30T18:49:07.883Z,48.60
2017-04-30T18:51:35.395Z,48.30
2017-04-30T18:54:02.168Z,48.40
2017-04-30T18:56:29.038Z,48.90
2017-04-30T18:58:55.848Z,49.10
2017-04-30T19:01:22.661Z,48.90
2017-04-30T19:03:49.439Z,49.50
2017-04-30T19:06:16.266Z,49.70
2017-04-30T19:08:43.034Z,49.70
2017-04-30T19:11:09.810Z,50.00
2017-04-30T19:13:36.618Z,49.40
2017-04-30T19:16:03.401Z,49.90
2017-04-30T19:18:30.983Z,49.90
2017-04-30T19:20:57.778Z,50.20
2017-04-30T19:23:24.595Z,49.70
2017-04-30T19:25:51.415Z,50.10
2017-04-30T19:28:18.186Z,50.30
2017-04-30T19:30:45.003Z,50.50
2017-04-30T19:33:11.825Z,50.90
2017-04-30T19:35:38.640Z,51.00
2017-04-30T19:38:06.151Z,50.90
2017-04-30T19:40:32.986Z,51.50
2017-04-30T19:42:59.780Z,51.50
2017-04-30T19:45:26.574Z,51.50
2017-04-30T19:47:54.151Z,51.40
2017-04-30T19:50:20.974Z,51.40
2017-04-30T19:52:47.795Z,51.70
2017-04-30T19:55:14.610Z,51.50
2017-04-30T19:57:41.470Z,51.90
2017-04-30T20:00:08.240Z,51.90
2017-04-30T20:02:35.787Z,52.20
2017-04-30T20:05:03.334Z,51.70
2017-04-30T20:07:30.869Z,52.30
2017-04-30T20:09:57.708Z,52.60
2017-04-30T20:12:25.492Z,52.60
2017-04-30T20:14:52.356Z,52.80
2017-04-30T20:17:19.173Z,53.10
2017-04-30T20:19:45.954Z,52.90
2017-04-30T20:22:13.515Z,52.90
2017-04-30T20:24:40.294Z,53.00
2017-04-30T20:27:07.115Z,53.20
2017-04-30T20:29:33.894Z,53.10
2017-04-30T20:32:00.690Z,53.30
2017-04-30T20:34:27.572Z,53.30
2017-04-30T20:36:54.346Z,53.50
2017-04-30T20:39:21.177Z,53.40
2017-04-30T20:41:48.806Z,53.40
2017-04-30T20:44:15.586Z,53.60
2017-04-30T20:46:42.381Z,53.80
2017-04-30T20:49:09.943Z,53.90
2017-04-30T20:51:36.729Z,54.10
2017-04-30T20:54:03.545Z,54.10
2017-04-30T20:56:30.415Z,54.20
2017-04-30T20:58:57.969Z,55.10
2017-04-30T21:01:25.581Z,54.20
2017-04-30T21:03:52.358Z,54.30
2017-04-30T21:06:19.178Z,54.80
2017-04-30T21:08:45.999Z,56.10
2017-04-30T21:11:13.527Z,55.70
2017-04-30T21:13:40.354Z,55.70
2017-04-30T21:16:07.171Z,56.10
2017-04-30T21:18:34.066Z,56.00
2017-04-30T21:21:00.855Z,56.00
2017-04-30T21:23:28.404Z,56.20
2017-04-30T21:25:55.315Z,57.10
2017-04-30T21:28:22.852Z,56.50
2017-04-30T21:30:49.678Z,56.60
2017-04-30T21:33:16.447Z,56.80
2017-04-30T21:35:43.244Z,56.80
2017-04-30T21:38:10.823Z,56.90
2017-04-30T21:40:37.635Z,57.40
2017-04-30T21:43:04.447Z,57.10
2017-04-30T21:45:31.983Z,57.60
2017-04-30T21:47:58.820Z,57.50
2017-04-30T21:50:26.370Z,57.60
2017-04-30T21:52:53.895Z,58.10
2017-04-30T21:55:20.731Z,58.20
2017-04-30T21:57:47.541Z,58.30
2017-04-30T22:00:14.319Z,58.50
2017-04-30T22:02:41.166Z,58.50
2017-04-30T22:05:07.943Z,58.50
2017-04-30T22:07:35.499Z,58.60
2017-04-30T22:10:03.014Z,58.80
2017-04-30T22:12:29.858Z,59.00
2017-04-30T22:14:57.391Z,59.40
2017-04-30T22:17:24.210Z,59.30
2017-04-30T22:19:51.036Z,59.40
2017-04-30T22:22:17.822Z,59.50
2017-04-30T22:24:44.602Z,59.70
2017-04-30T22:27:11.422Z,59.50
2017-04-30T22:29:38.203Z,59.90
2017-04-30T22:32:05.018Z,60.20
2017-04-30T22:34:31.798Z,60.20
2017-04-30T22:36:58.622Z,60.70
2017-04-30T22:39:26.325Z,60.90
2017-04-30T22:41:53.107Z,60.60
2017-04-30T22:44:19.926Z,60.90
2017-04-30T22:46:46.699Z,61.20
2017-04-30T22:49:13.515Z,60.80
2017-04-30T22:51:41.058Z,61.50
2017-04-30T22:54:08.627Z,61.80
2017-04-30T22:56:35.443Z,62.00
2017-04-30T22:59:02.954Z,61.90
2017-04-30T23:01:29.774Z,62.20
2017-04-30T23:03:56.563Z,61.60
2017-04-30T23:06:23.400Z,62.00
2017-04-30T23:08:50.171Z,61.90
2017-04-30T23:11:16.983Z,62.30
2017-04-30T23:13:43.786Z,62.50
2017-04-30T23:16:10.563Z,62.60
2017-04-30T23:18:37.406Z,63.20
2017-04-30T23:21:04.938Z,63.20
2017-04-30T23:23:31.719Z,63.60
2017-04-30T23:25:58.562Z,63.40
2017-04-30T23:28:25.415Z,63.80
2017-04-30T23:30:52.270Z,63.60
2017-04-30T23:33:19.827Z,64.10
2017-04-30T23:35:46.663Z,64.20
2017-04-30T23:38:13.435Z,63.40
2017-04-30T23:40:40.234Z,63.10
2017-04-30T23:43:07.038Z,63.50
2017-04-30T23:45:33.814Z,63.70
2017-04-30T23:48:00.647Z,63.60
2017-04-30T23:50:27.458Z,63.60
2017-04-30T23:52:54.395Z,64.20
2017-04-30T23:55:21.226Z,65.10
2017-04-30T23:57:47.994Z,65.60
